Crockett, Texas
Current Conditions -  °F | °C
As of 9:35 AM on Monday 22 Dec 2014 (Local Time) from KDKR Reporting Station
Overcast Overcast  
Wind Chill: 64°   Ceiling: 1400
Heat Index: 64°   Visibility: NA
Dew Point: 61°   Wind: 13mph
Humidity: 88%   Direction: 210°SSW
Pressure: 29.74"   Gusts: 20mph
Location:  31.32°N, 95.46°W
Report Text: KDKR 221535Z AUTO 21011G17KT BKN014 BKN021 OVC027 18/16 A2974 RMK AO2
Loading
Personal Weather Stations






























Interactive Weather Map New forecast layout! Learn more

10-Day Weather Forecast

Advertisements
Track Severe Weather on mobile